createdAt,value
2023-04-02T00:00:41.622Z,9.63
2023-04-02T00:01:41.624Z,9.62
2023-04-02T00:02:41.587Z,9.60
2023-04-02T00:03:41.678Z,9.59
2023-04-02T00:04:41.531Z,9.59
2023-04-02T00:05:41.569Z,9.53
2023-04-02T00:06:41.494Z,9.53
2023-04-02T00:07:41.536Z,9.52
2023-04-02T00:08:41.497Z,9.45
2023-04-02T00:09:41.502Z,9.34
2023-04-02T00:10:41.457Z,9.27
2023-04-02T00:11:41.461Z,9.26
2023-04-02T00:12:41.446Z,9.23
2023-04-02T00:13:41.421Z,9.23
2023-04-02T00:14:41.394Z,9.23
2023-04-02T00:15:41.421Z,9.23
2023-04-02T00:16:41.470Z,9.17
2023-04-02T00:17:41.395Z,9.16
2023-04-02T00:18:41.338Z,9.15
2023-04-02T00:19:41.351Z,9.12
2023-04-02T00:20:41.352Z,9.12
2023-04-02T00:21:41.340Z,9.12
2023-04-02T00:22:41.317Z,9.13
2023-04-02T00:23:41.345Z,9.15
2023-04-02T00:24:41.267Z,9.13
2023-04-02T00:25:41.307Z,9.12
2023-04-02T00:26:41.249Z,9.08
2023-04-02T00:27:41.250Z,9.04
2023-04-02T00:28:41.218Z,9.04
2023-04-02T00:29:41.255Z,8.98
2023-04-02T00:30:41.208Z,9.00
2023-04-02T00:31:41.267Z,8.98
2023-04-02T00:32:41.242Z,8.96
2023-04-02T00:33:41.197Z,8.94
2023-04-02T00:34:41.160Z,8.93
2023-04-02T00:35:41.138Z,8.94
2023-04-02T00:36:41.102Z,8.94
2023-04-02T00:37:41.135Z,8.89
2023-04-02T00:38:41.123Z,8.83
2023-04-02T00:39:41.106Z,8.80
2023-04-02T00:40:41.078Z,8.78
2023-04-02T00:41:41.099Z,8.79
2023-04-02T00:42:41.064Z,8.80
2023-04-02T00:43:41.062Z,8.83
2023-04-02T00:44:41.033Z,8.78
2023-04-02T00:45:41.049Z,8.76
2023-04-02T00:46:41.008Z,8.75
2023-04-02T00:47:41.046Z,8.73
2023-04-02T00:48:40.980Z,8.70
2023-04-02T00:49:40.999Z,8.70
2023-04-02T00:50:40.986Z,8.68
2023-04-02T00:51:40.944Z,8.70
2023-04-02T00:52:40.915Z,8.67
2023-04-02T00:53:40.905Z,8.65
2023-04-02T00:54:40.922Z,8.65
2023-04-02T00:55:40.873Z,8.61
2023-04-02T00:56:40.937Z,8.63
2023-04-02T00:57:40.894Z,8.63
2023-04-02T00:58:40.824Z,8.65
2023-04-02T00:59:40.844Z,8.61
2023-04-02T01:00:40.801Z,8.63
2023-04-02T01:01:40.882Z,8.64
2023-04-02T01:02:41.049Z,8.63
2023-04-02T01:03:40.835Z,8.61
2023-04-02T01:04:40.756Z,8.63
2023-04-02T01:05:40.772Z,8.64
2023-04-02T01:06:40.755Z,8.65
2023-04-02T01:07:40.747Z,8.65
2023-04-02T01:08:40.715Z,8.65
2023-04-02T01:09:40.732Z,8.65
2023-04-02T01:10:40.696Z,8.64
2023-04-02T01:11:40.666Z,8.63
2023-04-02T01:12:40.641Z,8.60
2023-04-02T01:13:40.685Z,8.57
2023-04-02T01:14:40.645Z,8.57
2023-04-02T01:15:40.682Z,8.54
2023-04-02T01:16:40.622Z,8.52
2023-04-02T01:17:40.613Z,8.50
2023-04-02T01:18:40.573Z,8.49
2023-04-02T01:19:40.608Z,8.45
2023-04-02T01:20:40.562Z,8.43
2023-04-02T01:21:40.565Z,8.47
2023-04-02T01:22:40.544Z,8.47
2023-04-02T01:23:40.577Z,8.46
2023-04-02T01:24:40.509Z,8.45
2023-04-02T01:25:40.526Z,8.45
2023-04-02T01:26:40.484Z,8.45
2023-04-02T01:27:40.464Z,8.45
2023-04-02T01:28:40.504Z,8.40
2023-04-02T01:29:40.510Z,8.37
2023-04-02T01:30:40.436Z,8.32
2023-04-02T01:31:40.543Z,8.32
2023-04-02T01:32:40.443Z,8.32
2023-04-02T01:33:40.398Z,8.34
2023-04-02T01:34:40.385Z,8.34
2023-04-02T01:35:40.420Z,8.36
2023-04-02T01:36:40.391Z,8.36
2023-04-02T01:37:40.336Z,8.36
2023-04-02T01:38:40.350Z,8.34
2023-04-02T01:39:40.303Z,8.31
2023-04-02T01:40:40.344Z,8.28
2023-04-02T01:41:40.312Z,8.29
2023-04-02T01:42:40.278Z,8.28
2023-04-02T01:43:40.324Z,8.28
2023-04-02T01:44:40.235Z,8.29
2023-04-02T01:45:40.223Z,8.27
2023-04-02T01:46:40.220Z,8.27
2023-04-02T01:47:40.213Z,8.22
2023-04-02T01:48:40.258Z,8.22
2023-04-02T01:49:40.216Z,8.24
2023-04-02T01:50:40.157Z,8.20
2023-04-02T01:51:40.150Z,8.21
2023-04-02T01:52:40.158Z,8.24
2023-04-02T01:53:40.161Z,8.25
2023-04-02T01:54:40.099Z,8.25
2023-04-02T01:55:40.122Z,8.24
2023-04-02T01:56:40.090Z,8.22
2023-04-02T01:57:40.108Z,8.20
2023-04-02T01:58:40.088Z,8.14
2023-04-02T01:59:40.080Z,8.14
2023-04-02T02:00:40.070Z,8.10
2023-04-02T02:01:40.053Z,8.12
2023-04-02T02:02:40.096Z,8.12
2023-04-02T02:03:39.994Z,8.12
2023-04-02T02:04:40.012Z,8.10
2023-04-02T02:05:39.964Z,8.04
2023-04-02T02:06:39.958Z,8.06
2023-04-02T02:07:39.968Z,8.06
2023-04-02T02:08:39.945Z,8.06
2023-04-02T02:09:39.927Z,8.07
2023-04-02T02:10:39.924Z,8.09
2023-04-02T02:11:39.915Z,8.07
2023-04-02T02:12:39.893Z,8.09
2023-04-02T02:13:41.625Z,8.07
2023-04-02T02:14:39.888Z,8.06
2023-04-02T02:15:39.858Z,8.04
2023-04-02T02:16:39.898Z,8.02
2023-04-02T02:17:39.891Z,8.02
2023-04-02T02:18:39.826Z,7.94
2023-04-02T02:19:39.801Z,7.92
2023-04-02T02:20:39.758Z,7.95
2023-04-02T02:21:39.800Z,7.92
2023-04-02T02:22:39.802Z,7.91
2023-04-02T02:23:39.756Z,7.86
2023-04-02T02:24:39.754Z,7.88
2023-04-02T02:25:39.715Z,7.86
2023-04-02T02:26:39.704Z,7.86
2023-04-02T02:27:39.686Z,7.86
2023-04-02T02:28:39.700Z,7.85
2023-04-02T02:29:39.723Z,7.85
2023-04-02T02:30:39.688Z,7.85
2023-04-02T02:31:39.714Z,7.86
2023-04-02T02:32:39.670Z,7.79
2023-04-02T02:33:39.635Z,7.79
2023-04-02T02:34:39.674Z,7.79
2023-04-02T02:35:39.618Z,7.76
2023-04-02T02:36:39.579Z,7.77
2023-04-02T02:37:39.579Z,7.79
2023-04-02T02:38:39.532Z,7.79
2023-04-02T02:39:39.560Z,7.84
2023-04-02T02:40:39.548Z,7.82
2023-04-02T02:41:39.544Z,7.82
2023-04-02T02:42:39.502Z,7.79
2023-04-02T02:43:39.474Z,7.77
2023-04-02T02:44:39.497Z,7.79
2023-04-02T02:45:39.510Z,7.79
2023-04-02T02:46:39.456Z,7.77
2023-04-02T02:47:39.468Z,7.79
2023-04-02T02:48:39.447Z,7.77
2023-04-02T02:49:39.430Z,7.74
2023-04-02T02:50:39.460Z,7.74
2023-04-02T02:51:39.379Z,7.71
2023-04-02T02:52:39.368Z,7.71
2023-04-02T02:53:39.370Z,7.71
2023-04-02T02:54:39.344Z,7.76
2023-04-02T02:55:39.414Z,7.71
2023-04-02T02:56:39.315Z,7.69
2023-04-02T02:57:39.322Z,7.70
2023-04-02T02:58:39.266Z,7.73
2023-04-02T02:59:39.336Z,7.70
2023-04-02T03:00:39.266Z,7.69
2023-04-02T03:01:39.276Z,7.73
2023-04-02T03:02:39.367Z,7.67
2023-04-02T03:03:39.340Z,7.71
2023-04-02T03:04:39.233Z,7.71
2023-04-02T03:05:39.278Z,7.73
2023-04-02T03:06:39.218Z,7.74
2023-04-02T03:07:39.193Z,7.73
2023-04-02T03:08:39.171Z,7.71
2023-04-02T03:09:39.161Z,7.67
2023-04-02T03:10:39.142Z,7.66
2023-04-02T03:11:39.174Z,7.66
2023-04-02T03:12:39.113Z,7.66
2023-04-02T03:13:39.094Z,7.60
2023-04-02T03:14:39.054Z,7.58
2023-04-02T03:15:39.250Z,7.62
2023-04-02T03:16:39.087Z,7.63
2023-04-02T03:17:39.090Z,7.62
2023-04-02T03:18:39.057Z,7.60
2023-04-02T03:19:39.044Z,7.57
2023-04-02T03:20:38.990Z,7.54
2023-04-02T03:21:39.025Z,7.57
2023-04-02T03:22:39.024Z,7.58
2023-04-02T03:23:38.972Z,7.63
2023-04-02T03:24:38.939Z,7.60
2023-04-02T03:25:38.958Z,7.58
2023-04-02T03:26:38.901Z,7.57
2023-04-02T03:27:38.955Z,7.58
2023-04-02T03:28:38.914Z,7.58
2023-04-02T03:29:38.887Z,7.51
2023-04-02T03:30:38.858Z,7.51
2023-04-02T03:31:38.995Z,7.39
2023-04-02T03:32:38.881Z,7.36
2023-04-02T03:33:38.879Z,7.33
2023-04-02T03:34:38.811Z,7.32
2023-04-02T03:35:39.084Z,7.24
2023-04-02T03:36:38.828Z,7.23
2023-04-02T03:37:38.809Z,7.23
2023-04-02T03:38:38.767Z,7.18
2023-04-02T03:39:38.790Z,7.15
2023-04-02T03:40:38.725Z,7.18
2023-04-02T03:41:38.780Z,7.21
2023-04-02T03:42:38.723Z,7.19
2023-04-02T03:43:38.738Z,7.21
2023-04-02T03:44:38.675Z,7.19
2023-04-02T03:45:38.677Z,7.16
2023-04-02T03:46:38.728Z,7.15
2023-04-02T03:47:38.700Z,7.15
2023-04-02T03:48:38.681Z,7.16
2023-04-02T03:49:38.629Z,7.18
2023-04-02T03:50:38.620Z,7.18
2023-04-02T03:51:38.627Z,7.16
2023-04-02T03:52:38.604Z,7.15
2023-04-02T03:53:38.585Z,7.11
2023-04-02T03:54:38.595Z,7.07
2023-04-02T03:55:38.538Z,7.08
2023-04-02T03:56:38.582Z,7.04
2023-04-02T03:57:38.522Z,7.00
2023-04-02T03:58:38.513Z,7.01
2023-04-02T03:59:38.510Z,7.05
2023-04-02T04:00:38.505Z,7.08
2023-04-02T04:01:38.557Z,7.07
2023-04-02T04:02:38.606Z,7.00
2023-04-02T04:03:38.492Z,7.07
2023-04-02T04:04:38.454Z,7.04
2023-04-02T04:05:38.403Z,7.05
2023-04-02T04:06:38.448Z,7.07
2023-04-02T04:07:38.475Z,7.04
2023-04-02T04:08:38.388Z,7.00
2023-04-02T04:09:49.009Z,7.00
2023-04-02T04:10:38.350Z,6.99
2023-04-02T04:11:38.406Z,7.04
2023-04-02T04:12:38.345Z,7.04
2023-04-02T04:13:38.308Z,7.11
2023-04-02T04:14:38.300Z,7.12
2023-04-02T04:15:38.310Z,7.09
2023-04-02T04:16:38.370Z,7.08
2023-04-02T04:17:38.300Z,7.07
2023-04-02T04:18:38.316Z,7.07
2023-04-02T04:19:38.255Z,7.00
2023-04-02T04:20:38.285Z,7.01
2023-04-02T04:21:38.264Z,7.04
2023-04-02T04:22:38.222Z,7.05
2023-04-02T04:23:38.208Z,7.07
2023-04-02T04:24:38.215Z,7.07
2023-04-02T04:25:38.224Z,7.04
2023-04-02T04:26:38.262Z,7.05
2023-04-02T04:27:38.178Z,7.05
2023-04-02T04:28:38.213Z,7.00
2023-04-02T04:29:38.213Z,7.00
2023-04-02T04:30:38.122Z,6.97
2023-04-02T04:31:38.170Z,7.00
2023-04-02T04:32:38.184Z,7.01
2023-04-02T04:33:38.114Z,7.04
2023-04-02T04:34:38.087Z,6.99
2023-04-02T04:35:38.693Z,6.96
2023-04-02T04:36:38.021Z,6.94
2023-04-02T04:37:38.062Z,6.94
2023-04-02T04:38:38.072Z,6.97
2023-04-02T04:39:38.036Z,7.00
2023-04-02T04:40:38.028Z,6.91
2023-04-02T04:41:37.993Z,6.91
2023-04-02T04:42:37.972Z,6.93
2023-04-02T04:43:38.057Z,6.89
2023-04-02T04:44:37.963Z,6.87
2023-04-02T04:45:37.969Z,6.89
2023-04-02T04:46:37.917Z,6.83
2023-04-02T04:47:38.010Z,6.86
2023-04-02T04:48:37.908Z,6.86
2023-04-02T04:49:37.914Z,6.82
2023-04-02T04:50:37.891Z,6.86
2023-04-02T04:51:37.862Z,6.86
2023-04-02T04:52:37.907Z,6.83
2023-04-02T04:53:37.802Z,6.86
2023-04-02T04:54:37.873Z,6.83
2023-04-02T04:55:37.968Z,6.83
2023-04-02T04:56:37.806Z,6.83
2023-04-02T04:57:37.796Z,6.90
2023-04-02T04:58:37.863Z,6.87
2023-04-02T04:59:37.772Z,6.86
2023-04-02T05:00:37.765Z,6.78
2023-04-02T05:01:37.918Z,6.78
2023-04-02T05:02:37.747Z,6.76
2023-04-02T05:03:37.756Z,6.78
2023-04-02T05:04:37.764Z,6.72
2023-04-02T05:05:37.703Z,6.73
2023-04-02T05:06:37.660Z,6.75
2023-04-02T05:07:37.718Z,6.71
2023-04-02T05:08:37.674Z,6.69
2023-04-02T05:09:37.619Z,6.68
2023-04-02T05:10:37.631Z,6.65
2023-04-02T05:11:37.580Z,6.64
2023-04-02T05:12:37.644Z,6.64
2023-04-02T05:13:37.609Z,6.65
2023-04-02T05:14:37.627Z,6.65
2023-04-02T05:15:37.782Z,6.69
2023-04-02T05:16:37.695Z,6.73
2023-04-02T05:17:37.569Z,6.73
2023-04-02T05:18:37.516Z,6.75
2023-04-02T05:19:37.495Z,6.76
2023-04-02T05:20:37.487Z,6.76
2023-04-02T05:21:37.439Z,6.75
2023-04-02T05:22:39.544Z,6.72
2023-04-02T05:23:37.551Z,6.76
2023-04-02T05:24:37.456Z,6.76
2023-04-02T05:25:37.627Z,6.72
2023-04-02T05:26:37.450Z,6.71
2023-04-02T05:27:37.406Z,6.72
2023-04-02T05:28:37.409Z,6.73
2023-04-02T05:29:37.361Z,6.72
2023-04-02T05:30:37.400Z,6.71
2023-04-02T05:31:37.370Z,6.73
2023-04-02T05:32:37.372Z,6.73
2023-04-02T05:33:37.378Z,6.72
2023-04-02T05:34:37.348Z,6.69
2023-04-02T05:35:37.505Z,6.71
2023-04-02T05:36:37.258Z,6.73
2023-04-02T05:37:37.357Z,6.72
2023-04-02T05:38:37.324Z,6.73
2023-04-02T05:39:37.260Z,6.75
2023-04-02T05:40:37.278Z,6.71
2023-04-02T05:41:37.256Z,6.61
2023-04-02T05:42:37.216Z,6.61
2023-04-02T05:43:37.268Z,6.60
2023-04-02T05:44:39.122Z,6.60
2023-04-02T05:45:37.492Z,6.57
2023-04-02T05:46:37.181Z,6.58
2023-04-02T05:47:37.206Z,6.60
2023-04-02T05:48:37.207Z,6.63
2023-04-02T05:49:37.141Z,6.60
2023-04-02T05:50:37.287Z,6.55
2023-04-02T05:51:37.209Z,6.54
2023-04-02T05:52:37.128Z,6.51
2023-04-02T05:53:37.050Z,6.48
2023-04-02T05:54:37.081Z,6.45
2023-04-02T05:55:37.170Z,6.46
2023-04-02T05:58:37.173Z,6.40
2023-04-02T06:05:38.761Z,6.32
2023-04-02T06:08:22.999Z,6.30
2023-04-02T06:09:31.881Z,6.24
2023-04-02T06:41:40.093Z,6.25
2023-04-02T06:42:40.067Z,6.27
2023-04-02T06:43:40.063Z,6.20
2023-04-02T06:44:40.028Z,6.19
2023-04-02T06:45:40.016Z,6.14
2023-04-02T06:46:40.069Z,6.14
2023-04-02T06:47:40.068Z,6.17
2023-04-02T06:48:39.981Z,6.20
2023-04-02T06:49:40.016Z,6.27
2023-04-02T06:50:39.925Z,6.28
2023-04-02T06:51:39.950Z,6.33
2023-04-02T06:52:39.936Z,6.35
2023-04-02T06:53:39.905Z,6.36
2023-04-02T06:54:39.904Z,6.35
2023-04-02T06:55:40.005Z,6.27
2023-04-02T06:56:39.910Z,6.28
2023-04-02T06:57:41.362Z,6.27
2023-04-02T06:58:39.854Z,6.27
2023-04-02T06:59:39.866Z,6.24
2023-04-02T07:00:39.799Z,6.24
2023-04-02T07:01:39.896Z,6.17
2023-04-02T07:02:39.840Z,6.14
2023-04-02T07:03:39.773Z,6.06
2023-04-02T07:04:39.779Z,6.08
2023-04-02T07:05:42.490Z,6.08
2023-04-02T07:06:39.743Z,6.05
2023-04-02T07:07:39.767Z,6.06
2023-04-02T07:08:39.737Z,6.10
2023-04-02T07:09:39.719Z,6.05
2023-04-02T07:10:39.662Z,6.03
2023-04-02T07:11:39.699Z,6.06
2023-04-02T07:12:39.649Z,6.02
2023-04-02T07:13:39.656Z,5.99
2023-04-02T07:14:39.612Z,6.05
2023-04-02T07:15:39.688Z,6.10
2023-04-02T07:16:39.578Z,6.08
2023-04-02T07:17:39.619Z,6.10
2023-04-02T07:18:39.565Z,6.11
2023-04-02T07:19:39.590Z,6.08
2023-04-02T07:20:39.551Z,6.11
2023-04-02T07:21:39.537Z,6.16
2023-04-02T07:22:39.561Z,6.19
2023-04-02T07:23:39.528Z,6.19
2023-04-02T07:24:39.500Z,6.08
2023-04-02T07:25:39.511Z,6.10
2023-04-02T07:26:39.449Z,6.06
2023-04-02T07:27:39.522Z,6.06
2023-04-02T07:28:39.448Z,6.08
2023-04-02T07:29:39.452Z,6.11
2023-04-02T07:30:39.409Z,6.13
2023-04-02T07:31:39.501Z,6.14
2023-04-02T07:32:39.457Z,6.17
2023-04-02T07:33:41.187Z,6.19
2023-04-02T07:34:39.358Z,6.24
2023-04-02T07:35:39.377Z,6.24
2023-04-02T07:36:39.317Z,6.27
2023-04-02T07:37:39.363Z,6.27
2023-04-02T07:38:39.301Z,6.27
2023-04-02T07:39:42.176Z,6.28
2023-04-02T07:40:39.299Z,6.25
2023-04-02T07:41:39.302Z,6.27
2023-04-02T07:42:39.278Z,6.21
2023-04-02T07:43:39.284Z,6.24
2023-04-02T07:44:39.257Z,6.25
2023-04-02T07:45:39.247Z,6.27
2023-04-02T07:46:40.557Z,6.30
2023-04-02T07:47:39.372Z,6.32
2023-04-02T07:48:39.177Z,6.24
2023-04-02T07:49:39.157Z,6.20
2023-04-02T07:50:39.177Z,6.21
2023-04-02T07:51:39.211Z,6.24
2023-04-02T07:52:40.438Z,6.21
2023-04-02T07:53:39.121Z,6.21
2023-04-02T07:54:39.104Z,6.19
2023-04-02T07:55:39.091Z,6.14
2023-04-02T07:56:39.080Z,6.17
2023-04-02T07:57:39.141Z,6.17
2023-04-02T07:58:39.057Z,6.16
2023-04-02T07:59:39.052Z,6.16
2023-04-02T08:00:39.001Z,6.10
2023-04-02T08:01:39.020Z,6.14
2023-04-02T08:02:39.017Z,6.19
2023-04-02T08:03:39.164Z,6.10
2023-04-02T08:04:38.983Z,6.10
2023-04-02T08:05:39.944Z,6.11
2023-04-02T08:06:38.923Z,6.10
2023-04-02T08:07:38.958Z,6.11
2023-04-02T08:08:38.914Z,6.08
2023-04-02T08:09:38.940Z,6.11
2023-04-02T08:10:38.873Z,6.13
2023-04-02T08:11:38.898Z,6.11
2023-04-02T08:12:38.866Z,6.10
2023-04-02T08:13:38.910Z,6.16
2023-04-02T08:14:38.866Z,6.20
2023-04-02T08:15:38.832Z,6.24
2023-04-02T08:16:38.826Z,6.25
2023-04-02T08:17:38.907Z,6.25
2023-04-02T08:18:38.797Z,6.30
2023-04-02T08:19:51.732Z,6.33
2023-04-02T08:20:39.737Z,6.33
2023-04-02T08:21:38.754Z,6.28
2023-04-02T08:22:38.736Z,6.30
2023-04-02T08:23:38.795Z,6.25
2023-04-02T08:24:38.730Z,6.27
2023-04-02T08:25:38.686Z,6.27
2023-04-02T08:26:39.370Z,6.35
2023-04-02T08:27:38.675Z,6.40
2023-04-02T08:28:38.687Z,6.36
2023-04-02T08:29:38.703Z,6.33
2023-04-02T08:30:38.672Z,6.30
2023-04-02T08:31:38.656Z,6.32
2023-04-02T08:32:38.631Z,6.30
2023-04-02T08:33:38.633Z,6.32
2023-04-02T08:34:38.563Z,6.30
2023-04-02T08:35:38.883Z,6.32
2023-04-02T08:36:38.548Z,6.33
2023-04-02T08:37:38.564Z,6.33
2023-04-02T08:38:38.543Z,6.27
2023-04-02T08:39:38.503Z,6.16
2023-04-02T08:40:38.523Z,6.14
2023-04-02T08:41:38.526Z,6.10
2023-04-02T08:42:38.529Z,6.06
2023-04-02T08:43:38.523Z,6.10
2023-04-02T08:44:38.434Z,6.10
2023-04-02T08:45:38.545Z,6.05
2023-04-02T08:46:38.484Z,5.99
2023-04-02T08:47:38.430Z,5.96
2023-04-02T08:48:40.133Z,5.99
2023-04-02T08:49:38.369Z,6.03
2023-04-02T08:50:38.396Z,6.06
2023-04-02T08:51:38.394Z,6.10
2023-04-02T08:52:38.326Z,6.10
2023-04-02T08:53:38.425Z,6.11
2023-04-02T08:54:38.288Z,6.10
2023-04-02T08:55:38.329Z,6.08
2023-04-02T08:56:38.264Z,6.11
2023-04-02T08:57:38.264Z,6.16
2023-04-02T08:58:38.276Z,6.13
2023-04-02T08:59:38.311Z,6.14
2023-04-02T09:00:38.255Z,6.11
2023-04-02T09:01:38.336Z,6.11
2023-04-02T09:02:38.222Z,6.11
2023-04-02T09:03:38.289Z,6.14
2023-04-02T09:04:38.229Z,6.19
2023-04-02T09:05:38.209Z,6.27
2023-04-02T09:06:38.167Z,6.28
2023-04-02T09:07:38.168Z,6.33
2023-04-02T09:08:38.158Z,6.30
2023-04-02T09:09:38.196Z,6.32
2023-04-02T09:10:38.087Z,6.36
2023-04-02T09:11:38.090Z,6.40
2023-04-02T09:12:38.724Z,6.48
2023-04-02T09:13:38.156Z,6.53
2023-04-02T09:14:38.076Z,6.51
2023-04-02T09:15:38.340Z,6.48
2023-04-02T09:16:38.019Z,6.53
2023-04-02T09:17:50.487Z,6.53
2023-04-02T09:18:39.069Z,6.55
2023-04-02T09:19:38.002Z,6.60
2023-04-02T09:20:37.953Z,6.60
2023-04-02T09:21:37.977Z,6.53
2023-04-02T09:22:37.925Z,6.53
2023-04-02T09:23:38.007Z,6.58
2023-04-02T09:24:37.971Z,6.60
2023-04-02T09:25:38.112Z,6.61
2023-04-02T09:26:37.872Z,6.57
2023-04-02T09:27:37.892Z,6.60
2023-04-02T09:28:37.884Z,6.63
2023-04-02T09:29:37.874Z,6.68
2023-04-02T09:30:37.855Z,6.65
2023-04-02T09:31:37.874Z,6.69
2023-04-02T09:32:37.919Z,6.75
2023-04-02T09:33:37.850Z,6.78
2023-04-02T09:34:37.825Z,6.82
2023-04-02T09:35:38.072Z,6.87
2023-04-02T09:36:37.797Z,6.86
2023-04-02T09:37:37.766Z,6.83
2023-04-02T09:38:37.821Z,6.79
2023-04-02T09:39:37.807Z,6.79
2023-04-02T09:40:37.697Z,6.79
2023-04-02T09:41:37.692Z,6.78
2023-04-02T09:42:37.687Z,6.81
2023-04-02T09:43:37.697Z,6.81
2023-04-02T09:44:37.674Z,6.83
2023-04-02T09:45:37.687Z,6.86
2023-04-02T09:46:37.653Z,6.89
2023-04-02T09:47:38.007Z,6.89
2023-04-02T09:48:37.623Z,6.93
2023-04-02T09:49:37.593Z,6.93
2023-04-02T09:50:37.597Z,6.93
2023-04-02T09:51:37.562Z,6.91
2023-04-02T09:52:37.545Z,6.91
2023-04-02T09:53:37.594Z,6.96
2023-04-02T09:54:37.510Z,6.99
2023-04-02T09:55:37.897Z,6.94
2023-04-02T09:56:37.533Z,6.90
2023-04-02T09:57:37.480Z,6.83
2023-04-02T09:58:37.485Z,6.82
2023-04-02T09:59:37.489Z,6.82
2023-04-02T10:00:37.456Z,6.81
2023-04-02T10:01:37.558Z,6.81
2023-04-02T10:02:37.479Z,6.81
2023-04-02T10:03:37.429Z,6.82
2023-04-02T10:04:37.474Z,6.83
2023-04-02T10:05:41.228Z,6.87
2023-04-02T10:06:37.406Z,6.90
2023-04-02T10:07:37.404Z,6.86
2023-04-02T10:08:37.363Z,6.89
2023-04-02T10:09:37.374Z,6.93
2023-04-02T10:10:37.490Z,6.97
2023-04-02T10:11:46.242Z,6.99
2023-04-02T10:12:38.266Z,7.01
2023-04-02T10:13:37.272Z,7.01
2023-04-02T10:14:37.250Z,6.93
2023-04-02T10:15:37.494Z,6.91
2023-04-02T10:16:37.298Z,6.93
2023-04-02T10:17:37.259Z,6.96
2023-04-02T10:18:37.230Z,6.91
2023-04-02T10:19:37.236Z,6.93
2023-04-02T10:20:48.592Z,6.93
2023-04-02T10:21:38.205Z,6.89
2023-04-02T10:22:37.190Z,6.90
2023-04-02T10:23:37.181Z,6.93
2023-04-02T10:24:37.198Z,6.94
2023-04-02T10:25:37.315Z,7.00
2023-04-02T10:26:37.111Z,7.01
2023-04-02T10:27:37.462Z,6.93
2023-04-02T10:28:37.459Z,6.87
2023-04-02T10:29:37.141Z,6.86
2023-04-02T10:30:37.553Z,6.90
2023-04-02T10:31:37.134Z,6.86
2023-04-02T10:32:37.909Z,6.83
2023-04-02T10:33:37.033Z,6.82
2023-04-02T10:34:36.991Z,6.89
2023-04-02T10:35:37.273Z,6.89
2023-04-02T10:36:37.028Z,6.89
2023-04-02T10:37:37.039Z,6.91
2023-04-02T10:38:36.989Z,6.94
2023-04-02T10:39:36.957Z,6.97
2023-04-02T10:40:36.966Z,6.96
2023-04-02T10:41:37.022Z,6.99
2023-04-02T10:42:36.912Z,7.00
2023-04-02T10:43:36.876Z,7.00
2023-04-02T10:44:36.908Z,7.05
2023-04-02T10:45:37.285Z,7.09
2023-04-02T10:46:36.908Z,7.04
2023-04-02T10:47:36.840Z,7.08
2023-04-02T10:48:36.830Z,7.07
2023-04-02T10:49:36.884Z,7.07
2023-04-02T10:50:36.894Z,7.08
2023-04-02T10:51:36.807Z,7.09
2023-04-02T10:52:36.822Z,7.08
2023-04-02T10:53:36.744Z,7.11
2023-04-02T10:54:36.791Z,7.09
2023-04-02T10:55:37.021Z,7.12
2023-04-02T10:56:47.997Z,7.08
2023-04-02T10:57:37.825Z,7.12
2023-04-02T10:58:36.790Z,7.14
2023-04-02T10:59:36.711Z,7.12
2023-04-02T11:00:36.725Z,7.15
2023-04-02T11:01:36.713Z,7.23
2023-04-02T11:02:36.773Z,7.26
2023-04-02T11:03:36.760Z,7.24
2023-04-02T11:04:36.653Z,7.24
2023-04-02T11:05:37.026Z,7.32
2023-04-02T11:06:36.633Z,7.33
2023-04-02T11:07:36.586Z,7.34
2023-04-02T11:08:36.579Z,7.32
2023-04-02T11:09:36.528Z,7.33
2023-04-02T11:10:36.569Z,7.34
2023-04-02T11:11:36.508Z,7.33
2023-04-02T11:12:41.415Z,7.26
2023-04-02T11:13:37.517Z,7.21
2023-04-02T11:14:36.591Z,7.27
2023-04-02T11:15:36.710Z,7.27
2023-04-02T11:16:38.757Z,7.33
2023-04-02T11:17:37.444Z,7.39
2023-04-02T11:18:36.452Z,7.39
2023-04-02T11:19:36.412Z,7.42
2023-04-02T11:20:36.447Z,7.41
2023-04-02T11:21:42.296Z,7.34
2023-04-02T11:22:37.396Z,7.30
2023-04-02T11:23:36.370Z,7.27
2023-04-02T11:24:36.407Z,7.29
2023-04-02T11:25:36.653Z,7.34
2023-04-02T11:26:36.341Z,7.34
2023-04-02T11:27:36.344Z,7.39
2023-04-02T11:28:36.324Z,7.42
2023-04-02T11:29:36.471Z,7.45
2023-04-02T11:30:36.309Z,7.51
2023-04-02T11:31:36.369Z,7.47
2023-04-02T11:32:36.380Z,7.45
2023-04-02T11:33:39.968Z,7.45
2023-04-02T11:34:37.243Z,7.48
2023-04-02T11:35:36.522Z,7.50
2023-04-02T11:36:36.190Z,7.54
2023-04-02T11:37:36.218Z,7.60
2023-04-02T11:38:36.221Z,7.66
2023-04-02T11:39:36.161Z,7.71
2023-04-02T11:40:36.168Z,7.76
2023-04-02T11:41:36.129Z,7.82
2023-04-02T11:42:36.168Z,7.84
2023-04-02T11:43:36.243Z,7.85
2023-04-02T11:44:36.117Z,7.82
2023-04-02T11:46:36.071Z,7.86
2023-04-02T11:47:36.132Z,7.88
2023-04-02T11:48:36.195Z,7.84
2023-04-02T11:49:36.102Z,7.85
2023-04-02T11:50:36.043Z,7.85
2023-04-02T11:51:36.028Z,7.84
2023-04-02T11:52:36.009Z,7.84
2023-04-02T11:53:35.961Z,7.85
2023-04-02T11:54:35.972Z,7.79
2023-04-02T11:55:36.204Z,7.73
2023-04-02T11:56:35.952Z,7.74
2023-04-02T11:57:36.073Z,7.77
2023-04-02T11:58:35.947Z,7.79
2023-04-02T11:59:35.918Z,7.81
2023-04-02T12:00:36.249Z,7.82
2023-04-02T12:01:35.905Z,7.79
2023-04-02T12:02:35.990Z,7.76
2023-04-02T12:03:35.852Z,7.71
2023-04-02T12:04:35.886Z,7.71
2023-04-02T12:05:40.012Z,7.71
2023-04-02T12:06:40.634Z,7.70
2023-04-02T12:07:38.437Z,7.69
2023-04-02T12:08:41.926Z,7.66
2023-04-02T12:09:36.829Z,7.58
2023-04-02T12:10:35.767Z,7.62
2023-04-02T12:11:35.724Z,7.63
2023-04-02T12:12:35.781Z,7.62
2023-04-02T12:13:35.790Z,7.58
2023-04-02T12:14:35.733Z,7.63
2023-04-02T12:15:35.907Z,7.67
2023-04-02T12:16:35.741Z,7.67
2023-04-02T12:17:35.705Z,7.71
2023-04-02T12:18:35.664Z,7.73
2023-04-02T12:19:35.651Z,7.77
2023-04-02T12:20:35.787Z,7.71
2023-04-02T12:21:35.619Z,7.67
2023-04-02T12:22:35.589Z,7.63
2023-04-02T12:23:35.594Z,7.62
2023-04-02T12:24:35.661Z,7.66
2023-04-02T12:25:35.561Z,7.67
2023-04-02T12:26:35.548Z,7.69
2023-04-02T12:27:35.545Z,7.69
2023-04-02T12:28:35.532Z,7.66
2023-04-02T12:29:35.527Z,7.69
2023-04-02T12:30:35.775Z,7.71
2023-04-02T12:31:35.499Z,7.74
2023-04-02T12:32:35.576Z,7.77
2023-04-02T12:33:35.640Z,7.82
2023-04-02T12:34:36.296Z,7.74
2023-04-02T12:35:35.586Z,7.69
2023-04-02T12:36:35.508Z,7.63
2023-04-02T12:37:35.453Z,7.60
2023-04-02T12:38:35.503Z,7.52
2023-04-02T12:39:35.382Z,7.52
2023-04-02T12:40:35.768Z,7.57
2023-04-02T12:41:35.357Z,7.62
2023-04-02T12:42:35.380Z,7.69
2023-04-02T12:43:35.381Z,7.70
2023-04-02T12:44:35.386Z,7.76
2023-04-02T12:45:35.305Z,7.79
2023-04-02T12:46:35.435Z,7.84
2023-04-02T12:47:35.299Z,7.86
2023-04-02T12:48:35.255Z,7.88
2023-04-02T12:49:35.259Z,7.91
2023-04-02T12:50:35.517Z,7.92
2023-04-02T12:51:35.222Z,7.94
2023-04-02T12:52:35.220Z,7.96
2023-04-02T12:53:35.170Z,7.99
2023-04-02T12:54:35.237Z,8.02
2023-04-02T12:55:35.513Z,8.06
2023-04-02T12:57:27.652Z,8.10
2023-04-02T12:58:27.448Z,8.10
2023-04-02T12:59:27.444Z,8.10
2023-04-02T13:00:28.400Z,8.13
2023-04-02T13:01:27.591Z,8.12
2023-04-02T13:02:27.491Z,8.20
2023-04-02T13:03:29.044Z,8.14
2023-04-02T13:04:27.412Z,8.18
2023-04-02T13:05:27.407Z,8.18
2023-04-02T13:06:27.403Z,8.22
2023-04-02T13:07:27.426Z,8.22
2023-04-02T13:08:27.514Z,8.24
2023-04-02T13:09:28.576Z,8.25
2023-04-02T13:10:27.334Z,8.22
2023-04-02T13:11:27.319Z,8.14
2023-04-02T13:12:27.285Z,8.10
2023-04-02T13:13:27.287Z,8.07
2023-04-02T13:14:27.257Z,8.09
2023-04-02T13:15:28.298Z,8.12
2023-04-02T13:16:27.274Z,8.12
2023-04-02T13:17:27.249Z,8.06
2023-04-02T13:18:27.198Z,8.06
2023-04-02T13:19:27.209Z,8.07
2023-04-02T13:20:27.172Z,8.13
2023-04-02T13:21:28.338Z,8.17
2023-04-02T13:22:27.180Z,8.20
2023-04-02T13:23:27.180Z,8.14
2023-04-02T13:24:27.144Z,8.09
2023-04-02T13:25:27.173Z,8.12
2023-04-02T13:26:27.113Z,8.07
2023-04-02T13:27:27.092Z,8.04
2023-04-02T13:28:27.102Z,8.09
2023-04-02T13:29:27.107Z,8.14
2023-04-02T13:30:27.050Z,8.20
2023-04-02T13:31:27.122Z,8.22
2023-04-02T13:32:27.110Z,8.20
2023-04-02T13:33:27.035Z,8.03
2023-04-02T13:34:27.044Z,7.91
2023-04-02T13:35:27.005Z,7.94
2023-04-02T13:36:27.026Z,7.96
2023-04-02T13:37:27.014Z,7.96
2023-04-02T13:38:26.955Z,8.02
2023-04-02T13:39:27.029Z,8.02
2023-04-02T13:40:26.903Z,7.99
2023-04-02T13:41:26.948Z,7.94
2023-04-02T13:42:26.901Z,7.96
2023-04-02T13:43:26.877Z,8.02
2023-04-02T13:44:26.859Z,8.02
2023-04-02T13:45:26.920Z,8.02
2023-04-02T13:46:26.831Z,8.06
2023-04-02T13:47:26.886Z,8.07
2023-04-02T13:48:26.806Z,8.02
2023-04-02T13:49:26.799Z,7.99
2023-04-02T13:50:26.806Z,7.96
2023-04-02T13:51:26.835Z,8.00
2023-04-02T13:52:26.759Z,7.99
2023-04-02T13:53:26.788Z,8.02
2023-04-02T13:54:26.746Z,8.06
2023-04-02T13:55:26.764Z,8.09
2023-04-02T13:56:26.765Z,8.12
2023-04-02T13:57:26.764Z,8.09
2023-04-02T13:58:26.701Z,8.06
2023-04-02T13:59:26.686Z,8.02
2023-04-02T14:00:26.666Z,8.00
2023-04-02T14:01:26.743Z,8.02